Briefing drone pour Valencay

Rechercher une autre localisation

Conditions de vol :


Nous sommes le : Lundi 04 juillet 2022
Il est 12:20 UTC (14:20 LT)

Lever de soleil : 03:38 UTC (05:38 LT)
Coucher de soleil : 20:18 UTC (22:18 LT)

Météo

L'essentiel des conditions de vol

VIGILANCE MÉTÉO FRANCE - Indre (36)
Pas de vigilances particulieres
CARTES DES FRONTS
METAR de LFYR
LFYR 041200Z AUTO 32005KT 270V010 CAVOK 25/11 Q1021 NOSIG

Date d'émission: 04/07/2022
Heure d'émission: 12:00 UTC
Vent: 320° (variable du 270° au 010°) pour 5 KT (9 km/h)
Visibilité horizontale: > 10 km
Plafond : Plafond et visibilité OK (CAVOK)
Température: 25 °C
Point de rosée: 11 °C
Humidité: 41%
Pression (QNH): 1021 hPa
Conditions: Pas de changement dans les 2 heures (NOSIG)
TAF de LFYR
LFYR 040800Z 0409/0509 35006KT CAVOK

Conditions prévues :

Heure d'émission : Bulletin éffectué le 04 à 09:00 UTC
Prévision : Valide du 04 a 09:00 UTC au 05 a 09:00 UTC
Vent : 350° pour 6 KT (11 km/h)
Visibilité : > 10 km
WEBCAM POUR VALENCAY

Réglementation

Voler en sécurité

CARTES AERONAUTIQUE 1/500.000
CARTES VAC (LFYR)
SUP AIP




Chargement des AIP...
NOTAM (VALENCAY + Terrain à proximité / FIR )




Chargement des NOTAMS...
CONTACT PREFECTURE 36


Avertissement : Les données mises à disposition sont indicatives. Oxygène Drone ne pourra être tenu responsable de dégâts causés aux biens et aux personnes.